Asahi — JD2498 — position and weather

sailwx.info

Track history (hours):
 
Tides and Currents Weather Stations Pressure Air Temp Water Temp Dewpoint Dewpoint Depression Visibility Wind Speed Wind Dir Waves Ship Positions

Asahi

Last reported at 2018-Feb-20 23:48 UTC. Time now 2018-Feb-21 09:21 UTC.
Position N 35°39' E 139°46'.

Length 37 m; draft 3.7 m.

Type: Tug. MMSI: 431000377.

Date/timePositionNaut miles runAvg speedWind from/ knotsBaromVisibWave heightAir tempDewpointWater temp
2018-Feb-20 23:48N 35°39' E 139°46'2 4.5
2018-Feb-20 23:15N 35°36' E 139°46'1 3.6
2018-Feb-20 23:00N 35°36' E 139°47'2 3.2
2018-Feb-20 22:30N 35°34' E 139°48'4 5.8
2018-Feb-20 21:45N 35°38' E 139°46'0 0.0
2018-Feb-20 21:30N 35°38' E 139°46'0 0.0
2018-Feb-20 21:00N 35°38' E 139°46'0 0.0
2018-Feb-20 20:25N 35°38' E 139°46'0 0.0
2018-Feb-20 18:23N 35°38' E 139°46'0 0.0
2018-Feb-20 18:00N 35°38' E 139°46'0 0.0
2018-Feb-20 17:26N 35°38' E 139°46'0 0.0
2018-Feb-20 16:52N 35°38' E 139°46'0 0.0
2018-Feb-20 16:30N 35°38' E 139°46'0 0.0
2018-Feb-20 14:46N 35°38' E 139°46'0 0.0
2018-Feb-20 14:27N 35°38' E 139°46'0 0.0
2018-Feb-20 12:58N 35°38' E 139°46'0 0.0
2018-Feb-20 09:30N 35°38' E 139°46'1 2.6
2018-Feb-20 09:00N 35°37' E 139°46'1 1.3
2018-Feb-20 08:29N 35°36' E 139°46'2 4.6
2018-Feb-20 07:57N 35°39' E 139°46'0 0.0
2018-Feb-20 07:10N 35°39' E 139°46'0 0.0
2018-Feb-20 06:57N 35°39' E 139°46'0 0.0
2018-Feb-20 02:26N 35°39' E 139°46'0 0.0
2018-Feb-20 01:05N 35°39' E 139°46'0 0.1
2018-Feb-20 01:00N 35°39' E 139°46'0 0.0
2018-Feb-19 22:51N 35°39' E 139°46'2 6.0
2018-Feb-19 22:30N 35°37' E 139°46'1 2.5
2018-Feb-19 22:01N 35°36' E 139°47'3 5.1
2018-Feb-19 21:29N 35°34' E 139°49'3 6.1
2018-Feb-19 21:00N 35°36' E 139°47'0 0.4
2018-Feb-19 20:30N 35°36' E 139°47'0 0.1
2018-Feb-19 19:59N 35°36' E 139°47'3 5.4
2018-Feb-19 19:28N 35°39' E 139°46'0 0.0
2018-Feb-19 18:57N 35°39' E 139°46'0 0.0
2018-Feb-19 18:29N 35°39' E 139°46'0 0.0
2018-Feb-19 18:00N 35°39' E 139°46'0 0.0
2018-Feb-19 17:29N 35°39' E 139°46'0 0.0
2018-Feb-19 17:00N 35°39' E 139°46'0 0.0
2018-Feb-19 16:24N 35°39' E 139°46'0 0.0
2018-Feb-19 16:00N 35°39' E 139°46'0 0.0
2018-Feb-19 15:30N 35°39' E 139°46'0 0.0
2018-Feb-19 14:58N 35°39' E 139°46'0 0.0
2018-Feb-19 14:30N 35°39' E 139°46'0 0.0
2018-Feb-19 14:00N 35°39' E 139°46'0 0.0
2018-Feb-19 13:30N 35°39' E 139°46'0 0.0
2018-Feb-19 12:41N 35°39' E 139°46'0 0.0
2018-Feb-19 12:28N 35°39' E 139°46'0 0.0
2018-Feb-19 12:00N 35°39' E 139°46'0 0.0
2018-Feb-19 11:29N 35°39' E 139°46'0 0.0
2018-Feb-19 11:00N 35°39' E 139°46'0 0.0
2018-Feb-19 07:03N 35°39' E 139°46'0 0.1
2018-Feb-19 06:58N 35°39' E 139°46'0 0.0
2018-Feb-19 05:23N 35°39' E 139°46'0 0.0
2018-Feb-19 04:59N 35°39' E 139°46'0 0.0
2018-Feb-18 23:33N 35°39' E 139°46'0 5.9
2018-Feb-18 23:30N 35°38' E 139°46'2 2.0
2018-Feb-18 22:38N 35°37' E 139°47'0 3.5
2018-Feb-18 22:30N 35°37' E 139°48'2 3.8
2018-Feb-18 21:59N 35°36' E 139°50'3 6.3
2018-Feb-18 21:30N 35°37' E 139°46'2 0.7
2018-Feb-18 18:48N 35°39' E 139°46'0 0.0
2018-Feb-18 18:03N 35°39' E 139°46'0 0.0
2018-Feb-18 17:48N 35°39' E 139°46'0 0.0
2018-Feb-18 17:30N 35°39' E 139°46'0 0.0
2018-Feb-18 17:00N 35°39' E 139°46'0 0.0
2018-Feb-18 16:30N 35°39' E 139°46'0 0.0
2018-Feb-18 15:54N 35°39' E 139°46'0 0.0
2018-Feb-18 15:30N 35°39' E 139°46'0 0.0
2018-Feb-18 14:57N 35°39' E 139°46'0 0.0
2018-Feb-18 14:29N 35°39' E 139°46'0 0.0
2018-Feb-18 14:00N 35°39' E 139°46'0 0.0
2018-Feb-18 13:30N 35°39' E 139°46'0 0.0
2018-Feb-18 12:57N 35°39' E 139°46'0 0.0
2018-Feb-18 11:53N 35°39' E 139°46'0 0.0
2018-Feb-18 10:32N 35°39' E 139°46'0 0.0
2018-Feb-18 08:50N 35°39' E 139°46'0 0.0
2018-Feb-18 08:20N 35°39' E 139°46'1 3.6
2018-Feb-18 07:59N 35°37' E 139°46'1 1.9
2018-Feb-18 07:30N 35°37' E 139°47'1 2.1
2018-Feb-18 07:01N 35°38' E 139°46'1 0.2
2018-Feb-17 23:28N 35°39' E 139°46'3 5.5
2018-Feb-17 22:58N 35°36' E 139°46'2 3.2
2018-Feb-17 22:12N 35°34' E 139°48'1 7.1
2018-Feb-17 22:00N 35°35' E 139°47'4 5.8
2018-Feb-17 21:23N 35°39' E 139°46'0 0.0
2018-Feb-17 21:00N 35°39' E 139°46'0 0.0
2018-Feb-17 20:29N 35°39' E 139°46'0 0.0
2018-Feb-17 19:55N 35°39' E 139°46'0 0.0
2018-Feb-17 19:00N 35°39' E 139°46'0 0.0
2018-Feb-17 18:01N 35°39' E 139°46'0 0.0
2018-Feb-17 17:40N 35°39' E 139°46'0 0.0
2018-Feb-17 17:10N 35°39' E 139°46'0 0.0
2018-Feb-17 16:49N 35°39' E 139°46'0 0.0
2018-Feb-17 16:30N 35°39' E 139°46'0 0.0
2018-Feb-17 14:24N 35°39' E 139°46'0 0.0
2018-Feb-17 13:39N 35°39' E 139°46'0 0.1
2018-Feb-17 11:23N 35°39' E 139°46'3 6.3
2018-Feb-17 10:57N 35°36' E 139°46'1 1.1
2018-Feb-17 10:20N 35°36' E 139°46'0 0.0
2018-Feb-17 09:58N 35°36' E 139°46'1 2.7
2018-Feb-17 09:25N 35°35' E 139°47'0 1.0
2018-Feb-17 09:00N 35°36' E 139°47'0 0.3
2018-Feb-17 08:30N 35°36' E 139°47'1 1.2
2018-Feb-17 07:57N 35°36' E 139°47'0 0.3
2018-Feb-17 07:31N 35°36' E 139°46'3 4.9
2018-Feb-17 07:00N 35°38' E 139°45'1 0.3
2018-Feb-17 05:11N 35°39' E 139°46'0 0.0
2018-Feb-17 04:55N 35°39' E 139°46'0 0.0
2018-Feb-17 01:47N 35°39' E 139°46'0 0.0
2018-Feb-17 01:30N 35°39' E 139°46'0 0.0
2018-Feb-17 01:01N 35°39' E 139°46'0 0.0
2018-Feb-16 23:39N 35°39' E 139°46'0 0.0
2018-Feb-16 23:29N 35°39' E 139°46'0 0.0
2018-Feb-16 17:03N 35°39' E 139°46'0 0.0
2018-Feb-16 16:48N 35°39' E 139°46'0 0.0
2018-Feb-16 13:28N 35°39' E 139°46'0 0.0
2018-Feb-16 12:54N 35°39' E 139°46'0 0.0
2018-Feb-16 12:21N 35°39' E 139°46'0 0.0
2018-Feb-16 11:45N 35°39' E 139°46'0 0.0
2018-Feb-16 11:24N 35°39' E 139°46'0 0.0
2018-Feb-16 10:53N 35°39' E 139°46'0 0.0
2018-Feb-16 10:30N 35°39' E 139°46'0 0.0
2018-Feb-16 09:55N 35°39' E 139°46'0 0.0
2018-Feb-16 09:30N 35°39' E 139°46'0 0.0
2018-Feb-16 08:58N 35°39' E 139°46'0 0.0
2018-Feb-16 08:19N 35°39' E 139°46'0 0.0
2018-Feb-16 07:51N 35°39' E 139°46'0 0.0
2018-Feb-16 07:25N 35°39' E 139°46'0 0.0
2018-Feb-16 06:52N 35°39' E 139°46'0 0.0
2018-Feb-15 19:13N 35°39' E 139°46'210.5
2018-Feb-15 19:00N 35°36' E 139°47'0 0.4
2018-Feb-15 18:30N 35°36' E 139°47'3 0.2
2018-Feb-15 06:20N 35°39' E 139°46'0 0.0
2018-Feb-15 06:01N 35°39' E 139°46'0 0.0
2018-Feb-15 05:18N 35°39' E 139°46'0 0.0
2018-Feb-15 04:49N 35°39' E 139°46'0 0.0
2018-Feb-15 03:12N 35°39' E 139°46'0 0.0
2018-Feb-14 19:14N 35°39' E 139°46'0 0.0
2018-Feb-14 10:45N 35°39' E 139°46'1 1.8
2018-Feb-14 10:23N 35°38' E 139°45'2 3.1
2018-Feb-14 09:47N 35°36' E 139°46'0 0.5
2018-Feb-14 09:29N 35°36' E 139°46'3 6.2
2018-Feb-14 09:00N 35°34' E 139°49'3 4.7
2018-Feb-14 08:27N 35°37' E 139°47'0 0.0
2018-Feb-14 07:59N 35°37' E 139°47'0 0.0
2018-Feb-14 07:13N 35°37' E 139°47'0 0.0
2018-Feb-14 06:59N 35°37' E 139°47'0 0.0
2018-Feb-14 06:28N 35°37' E 139°47'0 0.0
2018-Feb-14 05:58N 35°37' E 139°47'0 0.8
2018-Feb-14 05:29N 35°37' E 139°48'0 0.8
2018-Feb-14 04:57N 35°37' E 139°47'0 0.0
2018-Feb-14 04:28N 35°37' E 139°47'0 0.0
2018-Feb-14 04:00N 35°37' E 139°47'0 0.0
2018-Feb-14 03:30N 35°37' E 139°47'1 2.7
2018-Feb-14 03:00N 35°36' E 139°47'2 3.5
2018-Feb-14 02:29N 35°37' E 139°46'1 2.9
2018-Feb-14 01:59N 35°39' E 139°46'0 0.0
2018-Feb-14 01:29N 35°39' E 139°46'0 0.0
2018-Feb-14 00:59N 35°39' E 139°46'0 0.0
2018-Feb-14 00:28N 35°39' E 139°46'0 0.0
2018-Feb-13 23:55N 35°39' E 139°46'0 0.0
2018-Feb-13 23:29N 35°39' E 139°46'0 0.0
2018-Feb-13 22:59N 35°39' E 139°46'0 0.0
2018-Feb-13 22:25N 35°39' E 139°46'0 0.0
2018-Feb-13 22:00N 35°39' E 139°46'0 0.0
2018-Feb-13 21:28N 35°39' E 139°46'0 0.0
2018-Feb-13 20:56N 35°39' E 139°46'0 0.0
2018-Feb-13 20:26N 35°39' E 139°46'0 0.0
2018-Feb-13 19:58N 35°39' E 139°46'0 0.0
2018-Feb-13 19:29N 35°39' E 139°46'0 0.0
2018-Feb-13 19:00N 35°39' E 139°46'0 0.0
2018-Feb-13 18:28N 35°39' E 139°46'0 0.0
2018-Feb-13 17:55N 35°39' E 139°46'0 0.0
2018-Feb-13 17:28N 35°39' E 139°46'0 0.0
2018-Feb-13 17:00N 35°39' E 139°46'0 0.0
2018-Feb-13 16:28N 35°39' E 139°46'0 0.0
2018-Feb-13 15:52N 35°39' E 139°46'0 0.0
2018-Feb-13 15:25N 35°39' E 139°46'0 0.0
2018-Feb-13 14:59N 35°39' E 139°46'0 0.0
2018-Feb-13 14:29N 35°39' E 139°46'0 0.0
2018-Feb-13 14:00N 35°39' E 139°46'0 0.0
2018-Feb-13 13:30N 35°39' E 139°46'0 0.0
2018-Feb-13 13:00N 35°39' E 139°46'0 0.0
2018-Feb-13 12:25N 35°39' E 139°46'0 0.0
2018-Feb-13 12:00N 35°39' E 139°46'0 0.0
2018-Feb-13 11:28N 35°39' E 139°46'0 0.0
2018-Feb-13 10:59N 35°39' E 139°46'0 0.0
2018-Feb-13 10:29N 35°39' E 139°46'0 0.0
2018-Feb-13 09:56N 35°39' E 139°46'0 0.0
2018-Feb-13 09:30N 35°39' E 139°46'0 0.0
2018-Feb-13 08:58N 35°39' E 139°46'0 0.0
2018-Feb-13 08:30N 35°39' E 139°46'0 0.0
2018-Feb-13 08:00N 35°39' E 139°46'0 0.0
2018-Feb-13 07:30N 35°39' E 139°46'0 0.0
2018-Feb-12 21:01N 35°39' E 139°46'0 0.0
2018-Feb-12 20:58N 35°39' E 139°46'0 0.0
2018-Feb-12 20:08N 35°39' E 139°46'0 0.0
2018-Feb-12 19:59N 35°39' E 139°46'0 0.0
2018-Feb-12 19:18N 35°39' E 139°46'0 0.0
2018-Feb-12 18:57N 35°39' E 139°46'0 0.0
2018-Feb-12 18:29N 35°39' E 139°46'0 0.0
2018-Feb-12 17:59N 35°39' E 139°46'0 0.0
2018-Feb-12 17:23N 35°39' E 139°46'0 0.0
2018-Feb-12 17:00N 35°39' E 139°46'0 0.0
2018-Feb-12 16:27N 35°39' E 139°46'0 0.0
2018-Feb-12 15:55N 35°39' E 139°46'0 0.0
2018-Feb-12 15:04N 35°39' E 139°46'0 0.0
2018-Feb-12 15:00N 35°39' E 139°46'0 0.0
2018-Feb-12 14:30N 35°39' E 139°46'0 0.0
2018-Feb-12 13:56N 35°39' E 139°46'0 0.0
2018-Feb-12 13:26N 35°39' E 139°46'0 0.0
2018-Feb-12 12:53N 35°39' E 139°46'0 0.0
2018-Feb-12 12:30N 35°39' E 139°46'0 0.0
2018-Feb-12 11:46N 35°39' E 139°46'0 0.0
2018-Feb-12 11:26N 35°39' E 139°46'0 0.0
2018-Feb-12 10:56N 35°39' E 139°46'0 0.0
2018-Feb-12 10:30N 35°39' E 139°46'0 0.0
2018-Feb-12 09:59N 35°39' E 139°46'0 0.0
2018-Feb-12 09:30N 35°39' E 139°46'0 0.0
2018-Feb-12 01:44N 35°39' E 139°46'311.5
2018-Feb-12 01:28N 35°36' E 139°47'3 6.5
2018-Feb-12 01:00N 35°39' E 139°46'0 0.4
2018-Feb-12 00:30N 35°39' E 139°47'1 0.7
2018-Feb-11 23:29N 35°39' E 139°46'3 5.1
2018-Feb-11 23:00N 35°36' E 139°47'2 3.4
2018-Feb-11 22:31N 35°35' E 139°48'2 4.1
2018-Feb-11 22:00N 35°37' E 139°46'2 2.7
2018-Feb-11 21:20N 35°38' E 139°46'0 0.0
2018-Feb-11 20:54N 35°38' E 139°46'0 0.0
2018-Feb-11 20:16N 35°38' E 139°46'0 0.0
2018-Feb-11 20:00N 35°38' E 139°46'0 0.0
2018-Feb-11 19:25N 35°38' E 139°46'0 0.0
2018-Feb-11 12:55N 35°38' E 139°46'0 0.0
2018-Feb-11 07:55N 35°38' E 139°46'0 0.0
2018-Feb-11 07:25N 35°38' E 139°46'0 0.0
2018-Feb-11 06:39N 35°38' E 139°46'0 0.0
2018-Feb-11 06:28N 35°38' E 139°46'0 0.0
2018-Feb-11 05:59N 35°38' E 139°46'0 0.0
2018-Feb-11 05:28N 35°38' E 139°46'0 0.0
2018-Feb-11 04:57N 35°38' E 139°46'0 0.0
2018-Feb-11 04:30N 35°38' E 139°46'0 0.0
2018-Feb-11 04:00N 35°38' E 139°46'0 0.0
2018-Feb-11 03:26N 35°38' E 139°46'0 0.0
2018-Feb-11 03:00N 35°38' E 139°46'0 0.0
2018-Feb-11 02:24N 35°38' E 139°46'0 0.0
2018-Feb-11 01:56N 35°38' E 139°46'0 0.0
2018-Feb-11 01:26N 35°38' E 139°46'0 0.0
2018-Feb-11 00:53N 35°38' E 139°46'  
Track history (hours):
 
Tides and Currents Weather Stations Pressure Air Temp Water Temp Dewpoint Dewpoint Depression Visibility Wind Speed Wind Dir Waves Ship Positions

Asahi

Last reported at 2018-Feb-20 23:48 UTC. Time now 2018-Feb-21 09:21 UTC.
Position N 35°39' E 139°46'.

Length 37 m; draft 3.7 m.

Type: Tug. MMSI: 431000377.

Date/timePositionNaut miles runAvg speedWind from/ knotsBaromVisibWave heightAir tempDewpointWater temp
2018-Feb-20 23:48N 35°39' E 139°46'2 4.5
2018-Feb-20 23:15N 35°36' E 139°46'1 3.6
2018-Feb-20 23:00N 35°36' E 139°47'2 3.2
2018-Feb-20 22:30N 35°34' E 139°48'4 5.8
2018-Feb-20 21:45N 35°38' E 139°46'0 0.0
2018-Feb-20 21:30N 35°38' E 139°46'0 0.0
2018-Feb-20 21:00N 35°38' E 139°46'0 0.0
2018-Feb-20 20:25N 35°38' E 139°46'0 0.0
2018-Feb-20 18:23N 35°38' E 139°46'0 0.0
2018-Feb-20 18:00N 35°38' E 139°46'0 0.0
2018-Feb-20 17:26N 35°38' E 139°46'0 0.0
2018-Feb-20 16:52N 35°38' E 139°46'0 0.0
2018-Feb-20 16:30N 35°38' E 139°46'0 0.0
2018-Feb-20 14:46N 35°38' E 139°46'0 0.0
2018-Feb-20 14:27N 35°38' E 139°46'0 0.0
2018-Feb-20 12:58N 35°38' E 139°46'0 0.0
2018-Feb-20 09:30N 35°38' E 139°46'1 2.6
2018-Feb-20 09:00N 35°37' E 139°46'1 1.3
2018-Feb-20 08:29N 35°36' E 139°46'2 4.6
2018-Feb-20 07:57N 35°39' E 139°46'0 0.0
2018-Feb-20 07:10N 35°39' E 139°46'0 0.0
2018-Feb-20 06:57N 35°39' E 139°46'0 0.0
2018-Feb-20 02:26N 35°39' E 139°46'0 0.0
2018-Feb-20 01:05N 35°39' E 139°46'0 0.1
2018-Feb-20 01:00N 35°39' E 139°46'0 0.0
2018-Feb-19 22:51N 35°39' E 139°46'2 6.0
2018-Feb-19 22:30N 35°37' E 139°46'1 2.5
2018-Feb-19 22:01N 35°36' E 139°47'3 5.1
2018-Feb-19 21:29N 35°34' E 139°49'3 6.1
2018-Feb-19 21:00N 35°36' E 139°47'0 0.4
2018-Feb-19 20:30N 35°36' E 139°47'0 0.1
2018-Feb-19 19:59N 35°36' E 139°47'3 5.4
2018-Feb-19 19:28N 35°39' E 139°46'0 0.0
2018-Feb-19 18:57N 35°39' E 139°46'0 0.0
2018-Feb-19 18:29N 35°39' E 139°46'0 0.0
2018-Feb-19 18:00N 35°39' E 139°46'0 0.0
2018-Feb-19 17:29N 35°39' E 139°46'0 0.0
2018-Feb-19 17:00N 35°39' E 139°46'0 0.0
2018-Feb-19 16:24N 35°39' E 139°46'0 0.0
2018-Feb-19 16:00N 35°39' E 139°46'0 0.0
2018-Feb-19 15:30N 35°39' E 139°46'0 0.0
2018-Feb-19 14:58N 35°39' E 139°46'0 0.0
2018-Feb-19 14:30N 35°39' E 139°46'0 0.0
2018-Feb-19 14:00N 35°39' E 139°46'0 0.0
2018-Feb-19 13:30N 35°39' E 139°46'0 0.0
2018-Feb-19 12:41N 35°39' E 139°46'0 0.0
2018-Feb-19 12:28N 35°39' E 139°46'0 0.0
2018-Feb-19 12:00N 35°39' E 139°46'0 0.0
2018-Feb-19 11:29N 35°39' E 139°46'0 0.0
2018-Feb-19 11:00N 35°39' E 139°46'0 0.0
2018-Feb-19 07:03N 35°39' E 139°46'0 0.1
2018-Feb-19 06:58N 35°39' E 139°46'0 0.0
2018-Feb-19 05:23N 35°39' E 139°46'0 0.0
2018-Feb-19 04:59N 35°39' E 139°46'0 0.0
2018-Feb-18 23:33N 35°39' E 139°46'0 5.9
2018-Feb-18 23:30N 35°38' E 139°46'2 2.0
2018-Feb-18 22:38N 35°37' E 139°47'0 3.5
2018-Feb-18 22:30N 35°37' E 139°48'2 3.8
2018-Feb-18 21:59N 35°36' E 139°50'3 6.3
2018-Feb-18 21:30N 35°37' E 139°46'2 0.7
2018-Feb-18 18:48N 35°39' E 139°46'0 0.0
2018-Feb-18 18:03N 35°39' E 139°46'0 0.0
2018-Feb-18 17:48N 35°39' E 139°46'0 0.0
2018-Feb-18 17:30N 35°39' E 139°46'0 0.0
2018-Feb-18 17:00N 35°39' E 139°46'0 0.0
2018-Feb-18 16:30N 35°39' E 139°46'0 0.0
2018-Feb-18 15:54N 35°39' E 139°46'0 0.0
2018-Feb-18 15:30N 35°39' E 139°46'0 0.0
2018-Feb-18 14:57N 35°39' E 139°46'0 0.0
2018-Feb-18 14:29N 35°39' E 139°46'0 0.0
2018-Feb-18 14:00N 35°39' E 139°46'0 0.0
2018-Feb-18 13:30N 35°39' E 139°46'0 0.0
2018-Feb-18 12:57N 35°39' E 139°46'0 0.0
2018-Feb-18 11:53N 35°39' E 139°46'0 0.0
2018-Feb-18 10:32N 35°39' E 139°46'0 0.0
2018-Feb-18 08:50N 35°39' E 139°46'0 0.0
2018-Feb-18 08:20N 35°39' E 139°46'1 3.6
2018-Feb-18 07:59N 35°37' E 139°46'1 1.9
2018-Feb-18 07:30N 35°37' E 139°47'1 2.1
2018-Feb-18 07:01N 35°38' E 139°46'1 0.2
2018-Feb-17 23:28N 35°39' E 139°46'3 5.5
2018-Feb-17 22:58N 35°36' E 139°46'2 3.2
2018-Feb-17 22:12N 35°34' E 139°48'1 7.1
2018-Feb-17 22:00N 35°35' E 139°47'4 5.8
2018-Feb-17 21:23N 35°39' E 139°46'0 0.0
2018-Feb-17 21:00N 35°39' E 139°46'0 0.0
2018-Feb-17 20:29N 35°39' E 139°46'0 0.0
2018-Feb-17 19:55N 35°39' E 139°46'0 0.0
2018-Feb-17 19:00N 35°39' E 139°46'0 0.0
2018-Feb-17 18:01N 35°39' E 139°46'0 0.0
2018-Feb-17 17:40N 35°39' E 139°46'0 0.0
2018-Feb-17 17:10N 35°39' E 139°46'0 0.0
2018-Feb-17 16:49N 35°39' E 139°46'0 0.0
2018-Feb-17 16:30N 35°39' E 139°46'0 0.0
2018-Feb-17 14:24N 35°39' E 139°46'0 0.0
2018-Feb-17 13:39N 35°39' E 139°46'0 0.1
2018-Feb-17 11:23N 35°39' E 139°46'3 6.3
2018-Feb-17 10:57N 35°36' E 139°46'1 1.1
2018-Feb-17 10:20N 35°36' E 139°46'0 0.0
2018-Feb-17 09:58N 35°36' E 139°46'1 2.7
2018-Feb-17 09:25N 35°35' E 139°47'0 1.0
2018-Feb-17 09:00N 35°36' E 139°47'0 0.3
2018-Feb-17 08:30N 35°36' E 139°47'1 1.2
2018-Feb-17 07:57N 35°36' E 139°47'0 0.3
2018-Feb-17 07:31N 35°36' E 139°46'3 4.9
2018-Feb-17 07:00N 35°38' E 139°45'1 0.3
2018-Feb-17 05:11N 35°39' E 139°46'0 0.0
2018-Feb-17 04:55N 35°39' E 139°46'0 0.0
2018-Feb-17 01:47N 35°39' E 139°46'0 0.0
2018-Feb-17 01:30N 35°39' E 139°46'0 0.0
2018-Feb-17 01:01N 35°39' E 139°46'0 0.0
2018-Feb-16 23:39N 35°39' E 139°46'0 0.0
2018-Feb-16 23:29N 35°39' E 139°46'0 0.0
2018-Feb-16 17:03N 35°39' E 139°46'0 0.0
2018-Feb-16 16:48N 35°39' E 139°46'0 0.0
2018-Feb-16 13:28N 35°39' E 139°46'0 0.0
2018-Feb-16 12:54N 35°39' E 139°46'0 0.0
2018-Feb-16 12:21N 35°39' E 139°46'0 0.0
2018-Feb-16 11:45N 35°39' E 139°46'0 0.0
2018-Feb-16 11:24N 35°39' E 139°46'0 0.0
2018-Feb-16 10:53N 35°39' E 139°46'0 0.0
2018-Feb-16 10:30N 35°39' E 139°46'0 0.0
2018-Feb-16 09:55N 35°39' E 139°46'0 0.0
2018-Feb-16 09:30N 35°39' E 139°46'0 0.0
2018-Feb-16 08:58N 35°39' E 139°46'0 0.0
2018-Feb-16 08:19N 35°39' E 139°46'0 0.0
2018-Feb-16 07:51N 35°39' E 139°46'0 0.0
2018-Feb-16 07:25N 35°39' E 139°46'0 0.0
2018-Feb-16 06:52N 35°39' E 139°46'0 0.0
2018-Feb-15 19:13N 35°39' E 139°46'210.5
2018-Feb-15 19:00N 35°36' E 139°47'0 0.4
2018-Feb-15 18:30N 35°36' E 139°47'3 0.2
2018-Feb-15 06:20N 35°39' E 139°46'0 0.0
2018-Feb-15 06:01N 35°39' E 139°46'0 0.0
2018-Feb-15 05:18N 35°39' E 139°46'0 0.0
2018-Feb-15 04:49N 35°39' E 139°46'0 0.0
2018-Feb-15 03:12N 35°39' E 139°46'0 0.0
2018-Feb-14 19:14N 35°39' E 139°46'0 0.0
2018-Feb-14 10:45N 35°39' E 139°46'1 1.8
2018-Feb-14 10:23N 35°38' E 139°45'2 3.1
2018-Feb-14 09:47N 35°36' E 139°46'0 0.5
2018-Feb-14 09:29N 35°36' E 139°46'3 6.2
2018-Feb-14 09:00N 35°34' E 139°49'3 4.7
2018-Feb-14 08:27N 35°37' E 139°47'0 0.0
2018-Feb-14 07:59N 35°37' E 139°47'0 0.0
2018-Feb-14 07:13N 35°37' E 139°47'0 0.0
2018-Feb-14 06:59N 35°37' E 139°47'0 0.0
2018-Feb-14 06:28N 35°37' E 139°47'0 0.0
2018-Feb-14 05:58N 35°37' E 139°47'0 0.8
2018-Feb-14 05:29N 35°37' E 139°48'0 0.8
2018-Feb-14 04:57N 35°37' E 139°47'0 0.0
2018-Feb-14 04:28N 35°37' E 139°47'0 0.0
2018-Feb-14 04:00N 35°37' E 139°47'0 0.0
2018-Feb-14 03:30N 35°37' E 139°47'1 2.7
2018-Feb-14 03:00N 35°36' E 139°47'2 3.5
2018-Feb-14 02:29N 35°37' E 139°46'1 2.9
2018-Feb-14 01:59N 35°39' E 139°46'0 0.0
2018-Feb-14 01:29N 35°39' E 139°46'0 0.0
2018-Feb-14 00:59N 35°39' E 139°46'0 0.0
2018-Feb-14 00:28N 35°39' E 139°46'0 0.0
2018-Feb-13 23:55N 35°39' E 139°46'0 0.0
2018-Feb-13 23:29N 35°39' E 139°46'0 0.0
2018-Feb-13 22:59N 35°39' E 139°46'0 0.0
2018-Feb-13 22:25N 35°39' E 139°46'0 0.0
2018-Feb-13 22:00N 35°39' E 139°46'0 0.0
2018-Feb-13 21:28N 35°39' E 139°46'0 0.0
2018-Feb-13 20:56N 35°39' E 139°46'0 0.0
2018-Feb-13 20:26N 35°39' E 139°46'0 0.0
2018-Feb-13 19:58N 35°39' E 139°46'0 0.0
2018-Feb-13 19:29N 35°39' E 139°46'0 0.0
2018-Feb-13 19:00N 35°39' E 139°46'0 0.0
2018-Feb-13 18:28N 35°39' E 139°46'0 0.0
2018-Feb-13 17:55N 35°39' E 139°46'0 0.0
2018-Feb-13 17:28N 35°39' E 139°46'0 0.0
2018-Feb-13 17:00N 35°39' E 139°46'0 0.0
2018-Feb-13 16:28N 35°39' E 139°46'0 0.0
2018-Feb-13 15:52N 35°39' E 139°46'0 0.0
2018-Feb-13 15:25N 35°39' E 139°46'0 0.0
2018-Feb-13 14:59N 35°39' E 139°46'0 0.0
2018-Feb-13 14:29N 35°39' E 139°46'0 0.0
2018-Feb-13 14:00N 35°39' E 139°46'0 0.0
2018-Feb-13 13:30N 35°39' E 139°46'0 0.0
2018-Feb-13 13:00N 35°39' E 139°46'0 0.0
2018-Feb-13 12:25N 35°39' E 139°46'0 0.0
2018-Feb-13 12:00N 35°39' E 139°46'0 0.0
2018-Feb-13 11:28N 35°39' E 139°46'0 0.0
2018-Feb-13 10:59N 35°39' E 139°46'0 0.0
2018-Feb-13 10:29N 35°39' E 139°46'0 0.0
2018-Feb-13 09:56N 35°39' E 139°46'0 0.0
2018-Feb-13 09:30N 35°39' E 139°46'0 0.0
2018-Feb-13 08:58N 35°39' E 139°46'0 0.0
2018-Feb-13 08:30N 35°39' E 139°46'0 0.0
2018-Feb-13 08:00N 35°39' E 139°46'0 0.0
2018-Feb-13 07:30N 35°39' E 139°46'0 0.0
2018-Feb-12 21:01N 35°39' E 139°46'0 0.0
2018-Feb-12 20:58N 35°39' E 139°46'0 0.0
2018-Feb-12 20:08N 35°39' E 139°46'0 0.0
2018-Feb-12 19:59N 35°39' E 139°46'0 0.0
2018-Feb-12 19:18N 35°39' E 139°46'0 0.0
2018-Feb-12 18:57N 35°39' E 139°46'0 0.0
2018-Feb-12 18:29N 35°39' E 139°46'0 0.0
2018-Feb-12 17:59N 35°39' E 139°46'0 0.0
2018-Feb-12 17:23N 35°39' E 139°46'0 0.0
2018-Feb-12 17:00N 35°39' E 139°46'0 0.0
2018-Feb-12 16:27N 35°39' E 139°46'0 0.0
2018-Feb-12 15:55N 35°39' E 139°46'0 0.0
2018-Feb-12 15:04N 35°39' E 139°46'0 0.0
2018-Feb-12 15:00N 35°39' E 139°46'0 0.0
2018-Feb-12 14:30N 35°39' E 139°46'0 0.0
2018-Feb-12 13:56N 35°39' E 139°46'0 0.0
2018-Feb-12 13:26N 35°39' E 139°46'0 0.0
2018-Feb-12 12:53N 35°39' E 139°46'0 0.0
2018-Feb-12 12:30N 35°39' E 139°46'0 0.0
2018-Feb-12 11:46N 35°39' E 139°46'0 0.0
2018-Feb-12 11:26N 35°39' E 139°46'0 0.0
2018-Feb-12 10:56N 35°39' E 139°46'0 0.0
2018-Feb-12 10:30N 35°39' E 139°46'0 0.0
2018-Feb-12 09:59N 35°39' E 139°46'0 0.0
2018-Feb-12 09:30N 35°39' E 139°46'0 0.0
2018-Feb-12 01:44N 35°39' E 139°46'311.5
2018-Feb-12 01:28N 35°36' E 139°47'3 6.5
2018-Feb-12 01:00N 35°39' E 139°46'0 0.4
2018-Feb-12 00:30N 35°39' E 139°47'1 0.7
2018-Feb-11 23:29N 35°39' E 139°46'3 5.1
2018-Feb-11 23:00N 35°36' E 139°47'2 3.4
2018-Feb-11 22:31N 35°35' E 139°48'2 4.1
2018-Feb-11 22:00N 35°37' E 139°46'2 2.7
2018-Feb-11 21:20N 35°38' E 139°46'0 0.0
2018-Feb-11 20:54N 35°38' E 139°46'0 0.0
2018-Feb-11 20:16N 35°38' E 139°46'0 0.0
2018-Feb-11 20:00N 35°38' E 139°46'0 0.0
2018-Feb-11 19:25N 35°38' E 139°46'0 0.0
2018-Feb-11 12:55N 35°38' E 139°46'0 0.0
2018-Feb-11 07:55N 35°38' E 139°46'0 0.0
2018-Feb-11 07:25N 35°38' E 139°46'0 0.0
2018-Feb-11 06:39N 35°38' E 139°46'0 0.0
2018-Feb-11 06:28N 35°38' E 139°46'0 0.0
2018-Feb-11 05:59N 35°38' E 139°46'0 0.0
2018-Feb-11 05:28N 35°38' E 139°46'0 0.0
2018-Feb-11 04:57N 35°38' E 139°46'0 0.0
2018-Feb-11 04:30N 35°38' E 139°46'0 0.0
2018-Feb-11 04:00N 35°38' E 139°46'0 0.0
2018-Feb-11 03:26N 35°38' E 139°46'0 0.0
2018-Feb-11 03:00N 35°38' E 139°46'0 0.0
2018-Feb-11 02:24N 35°38' E 139°46'0 0.0
2018-Feb-11 01:56N 35°38' E 139°46'0 0.0
2018-Feb-11 01:26N 35°38' E 139°46'0 0.0
2018-Feb-11 00:53N 35°38' E 139°46'  

Dump ship's entire track history